Time;durP1;ratioP1;P1;durP2;ratioP2;P2;SDS_P1;SDS_P2;PMS_P1;PMS_P2;Temp;Humidity;BMP_temperature;BMP_pressure;BME280_temperature;BME280_humidity;BME280_pressure;Samples;Min_cycle;Max_cycle;Signal;HPM_P1;HPM_P2
2021/01/08 00:00:01;;;;;;;16.83;10.38;;;2.80;99.90;;;;;;4930648;29;20319;-75
2021/01/08 00:02:27;;;;;;;12.85;9.90;;;2.80;99.90;;;;;;4932459;29;20689;-75
2021/01/08 00:04:54;;;;;;;14.30;11.27;;;2.70;99.90;;;;;;4932787;29;20195;-74
2021/01/08 00:07:21;;;;;;;16.35;10.23;;;2.80;99.90;;;;;;4933113;29;20548;-74
2021/01/08 00:09:47;;;;;;;15.65;11.60;;;2.80;99.90;;;;;;4933785;29;20314;-75
2021/01/08 00:12:14;;;;;;;15.25;10.88;;;2.80;99.90;;;;;;4934861;29;20597;-75
2021/01/08 00:14:41;;;;;;;14.48;10.80;;;2.80;99.90;;;;;;4934938;29;20559;-75
2021/01/08 00:17:08;;;;;;;17.08;10.98;;;2.80;99.90;;;;;;4935155;29;20205;-74
2021/01/08 00:19:34;;;;;;;18.88;11.90;;;2.80;99.90;;;;;;4931070;29;20853;-75
2021/01/08 00:22:01;;;;;;;15.00;11.27;;;2.80;99.90;;;;;;4930397;29;20224;-74
2021/01/08 00:24:28;;;;;;;17.70;11.35;;;2.80;99.90;;;;;;4932057;29;20222;-74
2021/01/08 00:26:59;;;;;;;15.40;11.57;;;2.80;99.90;;;;;;4915531;29;20224;-74
2021/01/08 00:29:26;;;;;;;16.17;10.43;;;2.80;99.90;;;;;;4932812;29;20223;-75
2021/01/08 00:31:53;;;;;;;15.75;11.40;;;2.80;99.90;;;;;;4933515;29;20289;-75
2021/01/08 00:34:19;;;;;;;16.85;11.25;;;2.80;99.90;;;;;;4934520;29;20210;-75
2021/01/08 00:36:49;;;;;;;16.13;11.55;;;2.70;99.90;;;;;;4934681;29;20240;-75
2021/01/08 00:39:15;;;;;;;15.27;11.35;;;2.70;99.90;;;;;;4934366;29;20624;-75
2021/01/08 00:41:42;;;;;;;13.55;10.18;;;2.70;99.90;;;;;;4930517;29;20270;-74
2021/01/08 00:44:09;;;;;;;14.20;9.80;;;2.70;99.90;;;;;;4929836;29;20242;-74
2021/01/08 00:46:38;;;;;;;13.65;9.75;;;2.70;99.90;;;;;;4931713;29;20838;-75
2021/01/08 00:49:06;;;;;;;12.82;9.70;;;2.70;99.90;;;;;;4915161;29;20593;-75
2021/01/08 00:51:33;;;;;;;15.13;10.25;;;2.70;99.90;;;;;;4915423;29;20286;-74
2021/01/08 00:54:00;;;;;;;14.05;10.05;;;2.70;99.90;;;;;;4915567;29;20209;-75
2021/01/08 00:56:27;;;;;;;12.63;9.93;;;2.70;99.90;;;;;;4917529;29;20609;-74
2021/01/08 00:58:54;;;;;;;14.00;10.05;;;2.60;99.90;;;;;;4917631;29;20199;-75
2021/01/08 01:01:20;;;;;;;14.32;9.68;;;2.70;99.90;;;;;;4917666;29;20204;-76
2021/01/08 01:03:48;;;;;;;11.10;8.00;;;2.60;99.90;;;;;;4930188;29;20192;-75
2021/01/08 01:06:22;;;;;;;12.18;8.82;;;2.60;99.90;;;;;;4929725;29;20232;-75
2021/01/08 01:08:49;;;;;;;12.02;9.00;;;2.70;99.90;;;;;;4931922;29;20254;-75
2021/01/08 01:11:16;;;;;;;11.30;9.38;;;2.60;99.90;;;;;;4915155;29;20290;-74
2021/01/08 01:13:43;;;;;;;13.77;9.18;;;2.60;99.90;;;;;;4932397;29;20205;-75
2021/01/08 01:16:09;;;;;;;11.23;8.88;;;2.60;99.90;;;;;;4933287;29;20204;-75
2021/01/08 01:18:36;;;;;;;12.00;8.43;;;2.60;99.90;;;;;;4934111;29;20615;-74
2021/01/08 01:21:03;;;;;;;11.85;8.82;;;2.60;99.90;;;;;;4934106;29;20202;-74
2021/01/08 01:23:30;;;;;;;10.73;8.43;;;2.60;99.90;;;;;;4934325;29;20309;-74
2021/01/08 01:25:56;;;;;;;11.50;8.40;;;2.50;99.90;;;;;;4929770;29;20229;-75
2021/01/08 01:28:23;;;;;;;10.50;8.60;;;2.60;99.90;;;;;;4929526;29;20278;-74
2021/01/08 01:30:50;;;;;;;13.73;9.32;;;2.50;99.90;;;;;;4931510;29;20326;-74
2021/01/08 01:33:16;;;;;;;14.48;9.32;;;2.50;99.90;;;;;;4931571;29;20233;-74
2021/01/08 01:35:44;;;;;;;11.48;8.10;;;2.50;99.90;;;;;;4931913;29;20205;-74
2021/01/08 01:38:11;;;;;;;12.32;8.55;;;2.50;99.90;;;;;;4932971;29;20562;-75
2021/01/08 01:40:38;;;;;;;12.45;9.85;;;2.50;99.90;;;;;;4934203;29;20205;-74
2021/01/08 01:43:04;;;;;;;13.20;8.88;;;2.50;99.90;;;;;;4933821;29;20319;-75
2021/01/08 01:45:31;;;;;;;13.18;9.27;;;2.50;99.90;;;;;;4934040;29;20203;-74
2021/01/08 01:47:58;;;;;;;11.90;7.75;;;2.50;99.90;;;;;;4929740;29;20257;-74
2021/01/08 01:50:26;;;;;;;11.70;8.70;;;2.50;99.90;;;;;;4912218;29;20223;-75
2021/01/08 01:52:53;;;;;;;11.68;8.13;;;2.50;99.90;;;;;;4931172;29;20219;-75
2021/01/08 01:55:22;;;;;;;11.15;7.80;;;2.50;99.90;;;;;;4931538;29;20203;-74
2021/01/08 01:57:50;;;;;;;10.45;7.75;;;2.50;99.90;;;;;;4915080;29;20198;-74
2021/01/08 02:00:18;;;;;;;11.00;8.10;;;2.50;99.90;;;;;;4932600;29;20229;-74
2021/01/08 02:02:50;;;;;;;10.73;8.02;;;2.50;99.90;;;;;;4933533;29;20225;-74
2021/01/08 02:05:19;;;;;;;12.88;9.20;;;2.50;99.90;;;;;;4936618;29;20310;-74
2021/01/08 02:07:52;;;;;;;12.40;9.43;;;2.50;99.90;;;;;;4920203;29;20250;-75
2021/01/08 02:10:22;;;;;;;12.23;9.27;;;2.40;99.90;;;;;;4932437;29;20797;-74
2021/01/08 02:12:49;;;;;;;11.93;8.80;;;2.40;99.90;;;;;;4932322;29;20265;-75
2021/01/08 02:15:16;;;;;;;12.00;9.10;;;2.50;99.90;;;;;;4917908;29;20225;-74
2021/01/08 02:17:43;;;;;;;11.65;8.52;;;2.40;99.90;;;;;;4934950;29;20253;-74
2021/01/08 02:20:11;;;;;;;11.63;9.10;;;2.40;99.90;;;;;;4935284;29;20202;-74
2021/01/08 02:22:46;;;;;;;11.18;8.20;;;2.30;99.90;;;;;;4936131;29;20230;-74
2021/01/08 02:25:17;;;;;;;9.50;7.90;;;2.40;99.90;;;;;;4937166;29;20203;-74
2021/01/08 02:28:01;;;;;;;10.63;8.80;;;2.30;99.90;;;;;;4919920;29;20199;-74
2021/01/08 02:30:28;;;;;;;9.00;7.80;;;2.30;99.90;;;;;;4936400;29;20245;-74
2021/01/08 02:32:55;;;;;;;10.85;7.90;;;2.30;99.90;;;;;;4931465;29;20625;-74
2021/01/08 02:35:22;;;;;;;11.40;8.40;;;2.30;99.90;;;;;;4933246;29;20217;-74
2021/01/08 02:37:49;;;;;;;10.05;7.95;;;2.30;99.90;;;;;;4934788;29;20209;-74
2021/01/08 02:40:17;;;;;;;12.65;8.70;;;2.30;99.90;;;;;;4934469;29;20312;-74
2021/01/08 02:42:45;;;;;;;9.77;7.72;;;2.30;99.90;;;;;;4935103;29;20552;-74
2021/01/08 02:45:14;;;;;;;10.77;7.40;;;2.30;99.90;;;;;;4936039;29;20195;-74
2021/01/08 02:47:41;;;;;;;9.25;7.00;;;2.40;99.90;;;;;;4919904;29;20231;-74
2021/01/08 02:50:08;;;;;;;10.60;8.57;;;2.40;99.90;;;;;;4936870;29;20249;-74
2021/01/08 02:52:40;;;;;;;9.15;7.50;;;2.30;99.90;;;;;;4919169;29;20244;-74
2021/01/08 02:55:10;;;;;;;9.20;7.55;;;2.30;99.90;;;;;;4930965;29;20199;-74
2021/01/08 02:57:39;;;;;;;10.60;7.78;;;2.30;99.90;;;;;;4932684;29;20290;-74
2021/01/08 03:00:07;;;;;;;8.85;7.25;;;2.30;99.90;;;;;;4934521;29;20249;-74
2021/01/08 03:02:34;;;;;;;8.85;6.95;;;2.30;99.90;;;;;;4934532;29;20228;-75
2021/01/08 03:05:01;;;;;;;8.85;7.63;;;2.30;99.90;;;;;;4934657;29;20221;-74
2021/01/08 03:07:28;;;;;;;8.57;7.20;;;2.30;99.90;;;;;;4935797;29;20206;-74
2021/01/08 03:09:54;;;;;;;8.52;7.53;;;2.30;99.90;;;;;;4936248;29;20226;-74
2021/01/08 03:12:21;;;;;;;9.18;6.93;;;2.30;99.90;;;;;;4936379;29;20273;-74
2021/01/08 03:14:49;;;;;;;8.43;7.25;;;2.30;99.90;;;;;;4934654;29;20675;-74
2021/01/08 03:17:15;;;;;;;10.85;8.13;;;2.30;99.90;;;;;;4930062;29;20210;-74
2021/01/08 03:19:42;;;;;;;9.90;7.95;;;2.30;99.90;;;;;;4932437;29;20221;-74
2021/01/08 03:22:08;;;;;;;10.35;8.32;;;2.30;99.90;;;;;;4933735;29;20218;-74
2021/01/08 03:24:35;;;;;;;10.35;9.25;;;2.30;99.90;;;;;;4933550;29;20217;-74
2021/01/08 03:27:01;;;;;;;9.23;7.95;;;2.20;99.90;;;;;;4934334;29;20320;-74
2021/01/08 03:29:28;;;;;;;8.63;6.80;;;2.20;99.90;;;;;;4935220;29;20314;-74
2021/01/08 03:31:55;;;;;;;9.85;8.23;;;2.30;99.90;;;;;;4935781;29;20242;-73
2021/01/08 03:34:22;;;;;;;8.60;7.35;;;2.20;99.90;;;;;;4935716;29;20257;-74
2021/01/08 03:36:48;;;;;;;10.20;8.57;;;2.30;99.90;;;;;;4935086;29;20191;-74
2021/01/08 03:39:15;;;;;;;10.23;8.15;;;2.20;99.90;;;;;;4930150;29;20712;-74
2021/01/08 03:41:41;;;;;;;10.45;8.38;;;2.20;99.90;;;;;;4931939;29;20254;-74
2021/01/08 03:44:08;;;;;;;9.18;8.13;;;2.20;99.90;;;;;;4933419;29;20589;-74
2021/01/08 03:46:36;;;;;;;10.60;8.35;;;2.20;99.90;;;;;;4933197;29;20261;-74
2021/01/08 03:49:05;;;;;;;10.60;7.93;;;2.20;99.90;;;;;;4933796;29;20345;-74
2021/01/08 03:51:32;;;;;;;10.45;8.27;;;2.20;99.90;;;;;;4917877;29;20210;-74
2021/01/08 03:53:58;;;;;;;8.32;7.18;;;2.20;99.90;;;;;;4935708;29;20214;-74
2021/01/08 03:56:25;;;;;;;8.63;7.75;;;2.20;99.90;;;;;;4935341;29;20222;-74
2021/01/08 03:58:52;;;;;;;8.25;7.38;;;2.20;99.90;;;;;;4934795;29;20254;-74
2021/01/08 04:01:18;;;;;;;9.15;7.75;;;2.20;99.90;;;;;;4929730;29;20601;-74
2021/01/08 04:03:45;;;;;;;9.48;7.38;;;2.20;99.90;;;;;;4931314;29;20633;-74
2021/01/08 04:06:12;;;;;;;9.35;7.72;;;2.20;99.90;;;;;;4932861;29;20237;-74
2021/01/08 04:08:39;;;;;;;9.00;7.40;;;2.20;99.90;;;;;;4932999;29;20199;-74
2021/01/08 04:11:05;;;;;;;8.82;7.93;;;2.20;99.90;;;;;;4933344;29;20226;-74
2021/01/08 04:13:32;;;;;;;9.25;8.10;;;2.20;99.90;;;;;;4934338;29;20231;-74
2021/01/08 04:15:58;;;;;;;9.43;8.02;;;2.20;99.90;;;;;;4935047;29;20221;-74
2021/01/08 04:18:25;;;;;;;9.60;8.10;;;2.20;99.90;;;;;;4934918;29;20218;-74
2021/01/08 04:20:51;;;;;;;8.45;7.18;;;2.30;99.90;;;;;;4934543;29;20225;-74
2021/01/08 04:23:19;;;;;;;8.05;7.22;;;2.20;99.90;;;;;;4929226;29;20230;-74
2021/01/08 04:25:45;;;;;;;8.27;6.97;;;2.30;99.90;;;;;;4930773;29;20203;-75
2021/01/08 04:28:12;;;;;;;8.48;7.00;;;2.30;99.90;;;;;;4932366;29;20234;-74
2021/01/08 04:30:38;;;;;;;9.45;7.22;;;2.30;99.90;;;;;;4932227;29;20230;-74
2021/01/08 04:33:05;;;;;;;8.45;6.80;;;2.30;99.90;;;;;;4915997;29;20232;-74
2021/01/08 04:35:32;;;;;;;8.05;7.25;;;2.20;99.90;;;;;;4934115;29;20560;-74
2021/01/08 04:37:59;;;;;;;8.77;7.60;;;2.20;99.90;;;;;;4934664;29;20618;-74
2021/01/08 04:40:26;;;;;;;8.35;7.35;;;2.20;99.90;;;;;;4934533;29;20802;-74
2021/01/08 04:42:52;;;;;;;9.60;7.05;;;2.20;99.90;;;;;;4934084;29;20229;-74
2021/01/08 04:45:20;;;;;;;10.15;7.75;;;2.20;99.90;;;;;;4929035;29;20195;-74
2021/01/08 04:47:48;;;;;;;8.73;7.07;;;2.20;99.90;;;;;;4930740;29;20218;-74
2021/01/08 04:50:14;;;;;;;8.98;8.07;;;2.20;99.90;;;;;;4932268;29;20231;-74
2021/01/08 04:52:41;;;;;;;9.05;7.00;;;2.20;99.90;;;;;;4932094;29;20229;-74
2021/01/08 04:55:09;;;;;;;9.27;6.80;;;2.20;99.90;;;;;;4932461;29;20245;-74
2021/01/08 04:57:39;;;;;;;9.70;7.40;;;2.30;99.90;;;;;;4933686;29;20200;-74
2021/01/08 05:00:07;;;;;;;8.85;6.95;;;2.20;99.90;;;;;;4934104;29;20203;-74
2021/01/08 05:02:35;;;;;;;8.88;6.65;;;2.30;99.90;;;;;;4934298;29;20637;-74
2021/01/08 05:05:02;;;;;;;9.20;7.43;;;2.20;99.90;;;;;;4933825;29;20205;-74
2021/01/08 05:07:29;;;;;;;9.07;7.10;;;2.20;99.90;;;;;;4928945;29;20278;-74
2021/01/08 05:09:55;;;;;;;7.68;6.70;;;2.20;99.90;;;;;;4930127;29;20249;-74
2021/01/08 05:12:39;;;;;;;8.48;6.65;;;2.20;99.90;;;;;;4931943;29;20311;-74
2021/01/08 05:15:11;;;;;;;8.10;6.60;;;2.20;99.90;;;;;;4932090;29;20199;-74
2021/01/08 05:17:39;;;;;;;8.10;6.80;;;2.20;99.90;;;;;;4932447;29;20207;-74
2021/01/08 05:20:07;;;;;;;8.05;6.68;;;2.20;99.90;;;;;;4916690;29;20218;-74
2021/01/08 05:22:34;;;;;;;8.38;6.90;;;2.20;99.90;;;;;;4934048;29;20227;-75
2021/01/08 05:25:01;;;;;;;8.27;6.00;;;2.30;99.90;;;;;;4934024;29;20217;-74
2021/01/08 05:27:29;;;;;;;7.60;5.93;;;2.20;99.90;;;;;;4931471;29;20195;-75
2021/01/08 05:29:56;;;;;;;9.00;6.15;;;2.20;99.90;;;;;;4920811;29;20222;-74
2021/01/08 05:32:23;;;;;;;7.05;5.65;;;2.20;99.90;;;;;;4930799;29;20221;-75
2021/01/08 05:34:50;;;;;;;9.38;6.82;;;2.20;99.90;;;;;;4931819;29;20195;-74
2021/01/08 05:37:18;;;;;;;8.25;6.55;;;2.20;99.90;;;;;;4931682;29;20289;-74
2021/01/08 05:39:46;;;;;;;9.50;7.30;;;2.20;99.90;;;;;;4934648;29;20202;-75
2021/01/08 05:42:12;;;;;;;7.05;5.40;;;2.20;99.90;;;;;;4937657;29;20219;-74
2021/01/08 05:44:39;;;;;;;8.10;6.20;;;2.10;99.90;;;;;;4937798;29;20210;-75
2021/01/08 05:47:07;;;;;;;8.20;6.72;;;2.20;99.90;;;;;;4937885;29;20199;-74
2021/01/08 05:49:33;;;;;;;8.63;5.90;;;2.20;99.90;;;;;;4936404;29;20309;-74
2021/01/08 05:52:00;;;;;;;8.18;5.97;;;2.10;99.90;;;;;;4915200;29;20223;-74
2021/01/08 05:54:28;;;;;;;10.05;7.38;;;2.20;99.90;;;;;;4934069;29;20206;-75
2021/01/08 05:56:55;;;;;;;8.15;6.10;;;2.20;99.90;;;;;;4935591;29;20559;-74
2021/01/08 05:59:26;;;;;;;6.57;5.80;;;2.20;99.90;;;;;;4935549;29;20202;-74
2021/01/08 06:01:57;;;;;;;9.88;6.40;;;2.20;99.90;;;;;;4918750;29;20222;-75
2021/01/08 06:04:30;;;;;;;8.65;6.65;;;2.20;99.90;;;;;;4918364;29;20254;-75
2021/01/08 06:06:57;;;;;;;9.27;6.40;;;2.20;99.90;;;;;;4918311;29;20223;-74
2021/01/08 06:09:24;;;;;;;8.60;7.40;;;2.20;99.90;;;;;;4918391;29;20207;-75
2021/01/08 06:11:53;;;;;;;10.85;6.75;;;2.20;99.90;;;;;;4922405;29;20222;-74
2021/01/08 06:14:20;;;;;;;7.68;6.43;;;2.10;99.90;;;;;;4932046;29;20294;-75
2021/01/08 06:16:48;;;;;;;8.48;6.63;;;2.20;99.90;;;;;;4934121;29;20192;-75
2021/01/08 06:19:16;;;;;;;10.77;7.60;;;2.20;99.90;;;;;;4934814;29;20270;-74
2021/01/08 06:21:45;;;;;;;8.43;6.95;;;2.10;99.90;;;;;;4918306;29;20274;-75
2021/01/08 06:24:12;;;;;;;8.93;6.95;;;2.10;99.90;;;;;;4935124;29;20203;-75
2021/01/08 06:26:39;;;;;;;10.40;7.80;;;2.10;99.90;;;;;;4936928;29;20213;-74
2021/01/08 06:29:16;;;;;;;9.98;7.57;;;2.10;99.90;;;;;;4920289;29;20289;-74
2021/01/08 06:31:47;;;;;;;10.10;7.95;;;2.10;99.90;;;;;;4919709;29;20261;-75
2021/01/08 06:34:22;;;;;;;11.15;7.72;;;2.00;99.90;;;;;;4934680;29;20196;-75
2021/01/08 06:37:04;;;;;;;12.30;7.43;;;2.00;99.90;;;;;;4931560;29;20194;-74
2021/01/08 06:39:35;;;;;;;10.38;7.40;;;2.00;99.90;;;;;;4914266;29;20200;-74
2021/01/08 06:42:02;;;;;;;9.02;6.90;;;2.00;99.90;;;;;;4915296;29;20224;-75
2021/01/08 06:44:30;;;;;;;8.48;7.50;;;2.00;99.90;;;;;;4915806;29;20259;-74
2021/01/08 06:46:58;;;;;;;10.43;7.95;;;2.00;99.90;;;;;;4906841;29;20262;-74
2021/01/08 06:49:26;;;;;;;13.13;8.20;;;2.00;99.90;;;;;;4936540;29;20199;-75
2021/01/08 06:51:53;;;;;;;13.40;8.85;;;2.00;99.90;;;;;;4919840;29;20216;-75
2021/01/08 06:54:19;;;;;;;10.32;7.50;;;2.00;99.90;;;;;;4936408;29;20555;-74
2021/01/08 06:56:47;;;;;;;9.75;7.60;;;2.10;99.90;;;;;;4933409;29;20195;-74
2021/01/08 06:59:16;;;;;;;9.85;7.68;;;2.10;99.90;;;;;;4931645;29;20286;-74
2021/01/08 07:01:53;;;;;;;11.68;8.80;;;2.10;99.90;;;;;;4933724;29;20222;-74
2021/01/08 07:04:21;;;;;;;9.82;8.25;;;2.10;99.90;;;;;;4933632;29;20199;-75
2021/01/08 07:06:48;;;;;;;8.93;7.45;;;2.10;99.90;;;;;;4916801;29;20231;-80
2021/01/08 07:09:16;;;;;;;9.77;7.65;;;2.10;99.90;;;;;;4934104;29;20209;-84
2021/01/08 07:11:42;;;;;;;10.07;7.85;;;2.10;99.90;;;;;;4914821;29;20247;-75
2021/01/08 07:14:12;;;;;;;17.13;10.48;;;2.10;99.90;;;;;;4931206;29;20194;-75
2021/01/08 07:16:47;;;;;;;9.95;8.15;;;2.10;99.90;;;;;;4933521;29;20203;-74
2021/01/08 07:19:16;;;;;;;9.88;8.23;;;2.10;99.90;;;;;;4933713;29;20205;-75
2021/01/08 07:21:49;;;;;;;9.98;7.80;;;2.10;99.90;;;;;;4933817;29;20277;-74
2021/01/08 07:24:19;;;;;;;11.75;8.35;;;2.10;99.90;;;;;;4932834;29;20231;-74
2021/01/08 07:26:47;;;;;;;10.20;8.82;;;2.10;99.90;;;;;;4913583;29;20284;-74
2021/01/08 07:29:14;;;;;;;10.65;8.23;;;2.10;99.90;;;;;;4932952;29;20211;-75
2021/01/08 07:31:41;;;;;;;11.50;9.48;;;2.10;99.90;;;;;;4933394;29;20529;-75
2021/01/08 07:34:09;;;;;;;11.10;9.00;;;2.10;99.90;;;;;;4916700;29;20254;-75
2021/01/08 07:36:38;;;;;;;12.98;8.90;;;2.10;99.90;;;;;;4917542;29;20291;-74
2021/01/08 07:39:26;;;;;;;11.90;10.27;;;2.10;99.90;;;;;;4935109;29;20199;-75
2021/01/08 07:41:54;;;;;;;14.57;10.43;;;2.20;99.90;;;;;;4920281;29;20623;-75
2021/01/08 07:44:33;;;;;;;13.02;9.73;;;2.20;99.90;;;;;;4935574;29;20201;-75
2021/01/08 07:47:22;;;;;;;11.23;9.77;;;2.10;99.90;;;;;;4915559;29;20195;-75
2021/01/08 07:50:07;;;;;;;13.25;10.70;;;2.20;99.90;;;;;;4930317;29;20307;-75
2021/01/08 07:52:35;;;;;;;16.23;12.50;;;2.20;99.90;;;;;;4933411;29;20222;-75
2021/01/08 07:55:02;;;;;;;16.83;11.70;;;2.20;99.90;;;;;;4932479;29;20199;-76
2021/01/08 07:57:30;;;;;;;16.15;12.15;;;2.20;99.90;;;;;;4919311;29;20294;-75
2021/01/08 07:59:57;;;;;;;17.92;13.25;;;2.20;99.90;;;;;;4930098;29;20297;-78
2021/01/08 08:02:24;;;;;;;12.43;10.52;;;2.20;99.90;;;;;;4930474;29;20215;-75
2021/01/08 08:04:51;;;;;;;17.65;12.50;;;2.20;99.90;;;;;;4931859;29;20206;-76
2021/01/08 08:07:21;;;;;;;25.63;16.98;;;2.20;99.90;;;;;;4933497;29;20205;-76
2021/01/08 08:09:55;;;;;;;24.48;17.40;;;2.30;99.90;;;;;;4933848;29;20584;-77
2021/01/08 08:12:21;;;;;;;23.05;14.25;;;2.30;99.90;;;;;;4916548;29;20711;-80
2021/01/08 08:14:59;;;;;;;24.80;15.15;;;2.20;99.90;;;;;;4928723;29;20756;-76
2021/01/08 08:17:27;;;;;;;41.53;25.80;;;2.30;99.90;;;;;;4916293;29;20203;-75
2021/01/08 08:19:53;;;;;;;23.63;15.93;;;2.20;99.90;;;;;;4916176;29;20290;-76
2021/01/08 08:22:35;;;;;;;16.58;12.35;;;2.30;99.90;;;;;;4916144;29;20227;-76
2021/01/08 08:25:26;;;;;;;21.35;14.95;;;2.30;99.90;;;;;;4928602;29;20246;-75
2021/01/08 08:27:54;;;;;;;17.33;13.90;;;2.30;99.90;;;;;;4914063;29;20197;-76
2021/01/08 08:30:23;;;;;;;20.42;14.95;;;2.30;99.90;;;;;;4915050;29;20231;-75
2021/01/08 08:32:50;;;;;;;19.88;15.77;;;2.30;99.90;;;;;;4932544;29;20222;-76
2021/01/08 08:35:17;;;;;;;17.60;12.52;;;2.30;99.90;;;;;;4913934;29;20195;-77
2021/01/08 08:37:48;;;;;;;12.50;9.60;;;2.30;99.90;;;;;;4929208;29;20209;-76
2021/01/08 08:40:15;;;;;;;15.27;11.75;;;2.30;99.90;;;;;;4900146;29;20301;-74
2021/01/08 08:42:42;;;;;;;12.35;9.80;;;2.40;99.90;;;;;;4924462;29;20314;-75
2021/01/08 08:45:31;;;;;;;12.88;10.13;;;2.30;99.90;;;;;;4932403;29;20538;-75
2021/01/08 08:47:59;;;;;;;15.38;11.02;;;2.30;99.90;;;;;;4919071;29;20309;-76
2021/01/08 08:50:26;;;;;;;10.45;8.57;;;2.30;99.90;;;;;;4916772;29;20301;-76
2021/01/08 08:52:54;;;;;;;11.32;7.97;;;2.30;99.90;;;;;;4916213;29;20221;-75
2021/01/08 08:55:29;;;;;;;10.73;9.00;;;2.30;99.90;;;;;;4916307;29;20195;-75
2021/01/08 08:58:05;;;;;;;13.10;8.77;;;2.40;99.90;;;;;;4934506;29;20194;-75
2021/01/08 09:00:34;;;;;;;10.98;8.82;;;2.40;99.90;;;;;;4912354;29;20321;-75
2021/01/08 09:03:01;;;;;;;12.38;9.15;;;2.40;99.90;;;;;;4929124;29;20253;-75
2021/01/08 09:05:32;;;;;;;12.82;8.50;;;2.40;99.90;;;;;;4932295;29;20235;-75
2021/01/08 09:08:06;;;;;;;12.93;9.48;;;2.50;99.90;;;;;;4931516;29;20285;-74
2021/01/08 09:10:36;;;;;;;9.40;8.10;;;2.50;99.90;;;;;;4932176;29;20253;-75
2021/01/08 09:13:11;;;;;;;10.88;8.73;;;2.50;99.90;;;;;;4914309;29;20307;-75
2021/01/08 09:15:49;;;;;;;12.07;9.57;;;2.60;99.90;;;;;;4929119;29;20561;-75
2021/01/08 09:18:26;;;;;;;11.43;9.15;;;2.50;99.90;;;;;;4916477;29;20289;-75
2021/01/08 09:21:39;;;;;;;13.52;8.90;;;2.50;99.90;;;;;;4934478;29;20237;-74
2021/01/08 09:24:10;;;;;;;13.88;10.52;;;2.60;99.90;;;;;;4916614;29;20603;-76
2021/01/08 09:26:41;;;;;;;13.85;10.77;;;2.60;99.90;;;;;;4928417;29;20294;-73
2021/01/08 09:29:07;;;;;;;13.88;10.93;;;2.60;99.90;;;;;;4930876;29;20195;-75
2021/01/08 09:31:44;;;;;;;13.05;9.90;;;2.60;99.90;;;;;;4931957;29;20317;-74
2021/01/08 09:34:12;;;;;;;16.33;12.02;;;2.60;99.90;;;;;;4915479;29;20199;-74
2021/01/08 09:36:40;;;;;;;21.85;13.65;;;2.60;99.90;;;;;;4916339;29;20195;-74
2021/01/08 09:39:08;;;;;;;25.95;17.25;;;2.70;99.90;;;;;;4916349;29;20194;-75
2021/01/08 09:41:35;;;;;;;25.58;17.23;;;2.70;99.90;;;;;;4933597;29;20335;-75
2021/01/08 09:44:04;;;;;;;20.90;13.90;;;2.70;99.90;;;;;;4917166;29;20213;-75
2021/01/08 09:46:30;;;;;;;19.92;14.10;;;2.70;99.90;;;;;;4911397;29;20752;-75
2021/01/08 09:49:06;;;;;;;20.73;13.68;;;2.80;99.90;;;;;;4912654;29;20284;-75
2021/01/08 09:51:33;;;;;;;16.38;11.07;;;2.80;99.90;;;;;;4906070;29;20733;-74
2021/01/08 09:54:00;;;;;;;17.42;11.88;;;2.80;99.90;;;;;;4915382;29;20282;-74
2021/01/08 09:56:26;;;;;;;19.42;11.88;;;2.90;99.90;;;;;;4931522;29;20203;-76
2021/01/08 09:59:12;;;;;;;16.77;11.15;;;2.90;99.90;;;;;;4933866;29;20199;-75
2021/01/08 10:01:51;;;;;;;19.08;11.77;;;2.90;99.90;;;;;;4918457;29;20226;-75
2021/01/08 10:04:28;;;;;;;20.63;13.70;;;2.90;99.90;;;;;;4932818;29;20269;-75
2021/01/08 10:07:00;;;;;;;18.58;12.90;;;2.90;99.90;;;;;;4932987;29;20230;-75
2021/01/08 10:09:27;;;;;;;19.33;12.63;;;2.90;99.90;;;;;;4927653;29;20198;-76
2021/01/08 10:12:02;;;;;;;17.75;11.88;;;2.90;99.90;;;;;;4929103;29;20250;-75
2021/01/08 10:14:30;;;;;;;17.88;11.73;;;3.00;99.90;;;;;;4907502;29;20291;-75
2021/01/08 10:17:08;;;;;;;18.73;13.07;;;3.00;99.90;;;;;;4912169;29;20558;-75
2021/01/08 10:19:36;;;;;;;19.20;13.45;;;3.00;99.90;;;;;;4907608;29;20587;-76
2021/01/08 10:22:03;;;;;;;17.00;12.13;;;3.00;99.90;;;;;;4928228;29;20225;-75
2021/01/08 10:24:30;;;;;;;19.77;12.63;;;3.00;99.90;;;;;;4911660;29;20290;-75
2021/01/08 10:26:57;;;;;;;17.58;12.07;;;3.00;99.90;;;;;;4934862;29;20191;-75
2021/01/08 10:29:31;;;;;;;18.10;12.15;;;3.00;99.90;;;;;;4932875;29;20306;-75
2021/01/08 10:32:04;;;;;;;15.48;11.40;;;3.10;99.90;;;;;;4935570;29;20219;-75
2021/01/08 10:34:35;;;;;;;20.88;13.60;;;3.10;99.90;;;;;;4935834;29;20207;-75
2021/01/08 10:37:02;;;;;;;17.92;12.15;;;3.10;99.90;;;;;;4935767;29;20195;-76
2021/01/08 10:39:28;;;;;;;18.08;11.98;;;3.10;99.90;;;;;;4935752;29;20228;-75
2021/01/08 10:41:55;;;;;;;18.33;11.80;;;3.10;99.90;;;;;;4934687;29;20242;-76
2021/01/08 10:44:21;;;;;;;17.17;10.98;;;3.20;99.90;;;;;;4932294;29;20201;-76
2021/01/08 10:46:48;;;;;;;19.60;12.25;;;3.10;99.90;;;;;;4929635;29;21721;-75
2021/01/08 10:49:14;;;;;;;16.88;11.68;;;3.20;99.90;;;;;;4922402;29;20716;-76
2021/01/08 10:51:42;;;;;;;14.95;11.25;;;3.20;99.90;;;;;;4917775;29;20692;-76
2021/01/08 10:54:15;;;;;;;16.45;11.30;;;3.20;99.90;;;;;;4933342;29;20275;-75
2021/01/08 10:56:42;;;;;;;15.20;10.75;;;3.20;99.90;;;;;;4935064;29;20199;-75
2021/01/08 10:59:08;;;;;;;14.85;10.48;;;3.20;99.90;;;;;;4934780;29;20219;-76
2021/01/08 11:01:43;;;;;;;12.88;9.60;;;3.30;99.90;;;;;;4936046;29;20703;-75
2021/01/08 11:04:10;;;;;;;14.43;10.00;;;3.30;99.90;;;;;;4909871;29;20206;-75
2021/01/08 11:06:38;;;;;;;15.45;10.00;;;3.30;99.90;;;;;;4902283;29;20749;-75
2021/01/08 11:09:06;;;;;;;16.75;10.85;;;3.30;99.90;;;;;;4911851;29;20794;-75
2021/01/08 11:11:33;;;;;;;17.85;11.20;;;3.30;99.90;;;;;;4912894;29;20686;-75
2021/01/08 11:14:00;;;;;;;20.75;12.88;;;3.30;99.90;;;;;;4914531;29;20729;-75
2021/01/08 11:16:26;;;;;;;21.05;12.63;;;3.30;99.90;;;;;;4914489;29;20255;-75
2021/01/08 11:18:53;;;;;;;21.45;12.38;;;3.30;99.90;;;;;;4914821;29;20211;-75
2021/01/08 11:21:21;;;;;;;19.75;12.52;;;3.30;99.90;;;;;;4916137;29;20204;-75
2021/01/08 11:23:48;;;;;;;21.42;13.25;;;3.40;99.90;;;;;;4917178;29;20290;-75
2021/01/08 11:26:23;;;;;;;19.60;12.18;;;3.30;99.90;;;;;;4915591;29;20286;-75
2021/01/08 11:28:50;;;;;;;21.25;13.68;;;3.30;99.90;;;;;;4916198;29;20201;-76
2021/01/08 11:31:17;;;;;;;18.48;11.65;;;3.30;99.90;;;;;;4911210;29;20228;-76
2021/01/08 11:33:44;;;;;;;18.13;11.73;;;3.20;99.90;;;;;;4912382;29;20752;-76
2021/01/08 11:36:11;;;;;;;17.30;11.00;;;3.30;99.90;;;;;;4913690;29;20697;-75
2021/01/08 11:38:37;;;;;;;17.00;11.10;;;3.30;99.90;;;;;;4914426;29;20414;-76
2021/01/08 11:41:04;;;;;;;18.35;12.07;;;3.20;99.90;;;;;;4913807;29;20227;-76
2021/01/08 11:43:32;;;;;;;17.13;13.15;;;3.20;99.90;;;;;;4915437;29;20676;-75
2021/01/08 11:45:59;;;;;;;15.52;11.00;;;3.20;99.90;;;;;;4911958;29;20926;-75
2021/01/08 11:48:25;;;;;;;16.40;10.65;;;3.30;99.90;;;;;;4916297;29;20287;-75
2021/01/08 11:50:52;;;;;;;16.15;10.05;;;3.20;99.90;;;;;;4916488;29;20762;-75
2021/01/08 11:53:19;;;;;;;12.77;10.15;;;3.20;99.90;;;;;;4910581;29;20362;-76
2021/01/08 11:55:45;;;;;;;11.05;8.90;;;3.20;99.90;;;;;;4911011;29;20199;-75
2021/01/08 11:58:12;;;;;;;13.45;9.25;;;3.20;99.90;;;;;;4909527;29;20680;-75
2021/01/08 12:00:39;;;;;;;12.18;9.20;;;3.20;99.90;;;;;;4913882;29;20206;-76
2021/01/08 12:03:06;;;;;;;13.80;9.25;;;3.20;99.90;;;;;;4914843;29;20628;-75
2021/01/08 12:05:32;;;;;;;11.88;8.10;;;3.30;99.90;;;;;;4921010;29;20321;-76
2021/01/08 12:07:59;;;;;;;12.65;8.88;;;3.30;99.90;;;;;;4924598;29;20187;-76
2021/01/08 12:10:26;;;;;;;13.25;9.73;;;3.30;99.90;;;;;;4910520;29;20231;-76
2021/01/08 12:12:55;;;;;;;12.65;8.00;;;3.30;99.90;;;;;;4925293;29;20226;-76
2021/01/08 12:15:22;;;;;;;11.65;8.35;;;3.40;99.90;;;;;;4928360;29;20206;-74
2021/01/08 12:17:49;;;;;;;11.50;8.73;;;3.30;99.90;;;;;;4930095;29;20294;-76
2021/01/08 12:20:17;;;;;;;12.30;9.02;;;3.30;99.90;;;;;;4930067;29;20230;-77
2021/01/08 12:22:43;;;;;;;11.35;9.10;;;3.30;99.90;;;;;;4923040;29;20231;-76
2021/01/08 12:25:12;;;;;;;10.18;7.65;;;3.30;99.90;;;;;;4931567;29;20207;-76
2021/01/08 12:27:39;;;;;;;11.98;8.40;;;3.30;99.90;;;;;;4931497;29;20196;-76
2021/01/08 12:30:10;;;;;;;12.57;9.32;;;3.30;99.90;;;;;;4931418;29;20733;-77
2021/01/08 12:32:37;;;;;;;13.93;8.90;;;3.30;99.90;;;;;;4930204;29;20330;-76
2021/01/08 12:35:06;;;;;;;13.57;9.45;;;3.30;99.90;;;;;;4925570;29;20243;-77
2021/01/08 12:37:33;;;;;;;11.18;8.63;;;3.30;99.90;;;;;;4927038;29;20641;-77
2021/01/08 12:40:00;;;;;;;10.60;8.63;;;3.30;99.90;;;;;;4930023;29;20285;-76
2021/01/08 12:42:27;;;;;;;13.43;8.95;;;3.40;99.90;;;;;;4928571;29;20235;-75
2021/01/08 12:44:57;;;;;;;12.40;9.15;;;3.40;99.90;;;;;;4928996;29;20206;-76
2021/01/08 12:47:24;;;;;;;12.27;8.82;;;3.40;99.90;;;;;;4915366;29;20241;-76
2021/01/08 12:49:51;;;;;;;14.88;9.80;;;3.40;99.90;;;;;;4931054;29;20234;-75
2021/01/08 12:52:20;;;;;;;11.32;8.75;;;3.40;99.90;;;;;;4930803;29;20219;-75